createdAt,value
2023-05-01T00:02:17.550Z,7.80
2023-05-01T00:04:44.011Z,7.68
2023-05-01T00:07:10.612Z,7.57
2023-05-01T00:09:37.046Z,7.49
2023-05-01T00:12:03.921Z,7.42
2023-05-01T00:14:30.874Z,7.32
2023-05-01T00:16:57.359Z,7.22
2023-05-01T00:19:23.894Z,7.19
2023-05-01T00:21:52.389Z,7.13
2023-05-01T00:24:18.804Z,7.10
2023-05-01T00:26:45.230Z,7.09
2023-05-01T00:29:11.757Z,7.05
2023-05-01T00:31:38.260Z,6.99
2023-05-01T00:34:05.132Z,6.94
2023-05-01T00:36:32.222Z,6.89
2023-05-01T00:38:58.674Z,6.88
2023-05-01T00:41:25.371Z,6.90
2023-05-01T00:43:51.782Z,6.85
2023-05-01T00:46:19.120Z,6.81
2023-05-01T00:48:45.855Z,6.76
2023-05-01T00:51:12.931Z,6.70
2023-05-01T00:53:43.393Z,6.68
2023-05-01T00:56:11.097Z,6.64
2023-05-01T00:58:38.554Z,6.61
2023-05-01T01:01:05.356Z,6.64
2023-05-01T01:03:32.096Z,6.59
2023-05-01T01:06:08.345Z,6.55
2023-05-01T01:08:43.420Z,6.53
2023-05-01T01:11:19.791Z,6.54
2023-05-01T01:13:52.680Z,6.53
2023-05-01T01:16:27.848Z,6.49
2023-05-01T01:19:20.736Z,6.45
2023-05-01T01:21:51.928Z,6.43
2023-05-01T01:24:57.412Z,6.44
2023-05-01T01:27:48.617Z,6.45
2023-05-01T01:30:58.452Z,6.45
2023-05-01T01:33:35.372Z,6.42
2023-05-01T01:36:08.041Z,6.42
2023-05-01T01:38:42.293Z,6.37
2023-05-01T01:41:12.092Z,6.31
2023-05-01T01:43:44.682Z,6.30
2023-05-01T01:46:11.606Z,6.27
2023-05-01T01:48:43.353Z,6.28
2023-05-01T01:51:14.478Z,6.28
2023-05-01T01:53:45.722Z,6.24
2023-05-01T01:56:13.861Z,6.17
2023-05-01T01:58:41.133Z,6.12
2023-05-01T02:01:08.398Z,6.16
2023-05-01T02:03:37.162Z,6.18
2023-05-01T02:06:05.242Z,6.21
2023-05-01T02:08:32.490Z,6.19
2023-05-01T02:11:02.105Z,6.20
2023-05-01T02:13:31.261Z,6.14
2023-05-01T02:16:02.848Z,6.15
2023-05-01T02:18:31.360Z,6.18
2023-05-01T02:21:01.052Z,6.19
2023-05-01T02:23:29.215Z,6.22
2023-05-01T02:26:00.088Z,6.23
2023-05-01T02:28:28.318Z,6.26
2023-05-01T02:30:54.883Z,6.30
2023-05-01T02:33:21.421Z,6.32
2023-05-01T02:35:47.927Z,6.34
2023-05-01T02:38:17.164Z,6.40
2023-05-01T02:40:54.107Z,6.42
2023-05-01T02:43:22.722Z,6.43
2023-05-01T02:45:52.397Z,6.47
2023-05-01T02:48:23.611Z,6.49
2023-05-01T02:50:51.688Z,6.51
2023-05-01T02:53:18.792Z,6.49
2023-05-01T02:55:50.336Z,6.44
2023-05-01T02:58:20.569Z,6.47
2023-05-01T03:00:50.087Z,6.55
2023-05-01T03:03:17.911Z,6.60
2023-05-01T03:05:44.493Z,6.65
2023-05-01T03:08:11.607Z,6.70
2023-05-01T03:10:44.257Z,6.72
2023-05-01T03:13:11.633Z,6.73
2023-05-01T03:15:38.881Z,6.69
2023-05-01T03:18:05.896Z,6.66
2023-05-01T03:20:32.457Z,6.65
2023-05-01T03:22:59.353Z,6.69
2023-05-01T03:25:26.110Z,6.67
2023-05-01T03:27:54.952Z,6.72
2023-05-01T03:30:22.140Z,6.71
2023-05-01T03:32:49.286Z,6.73
2023-05-01T03:35:25.356Z,6.80
2023-05-01T03:37:51.994Z,6.91
2023-05-01T03:40:41.306Z,7.04
2023-05-01T03:43:31.388Z,7.12
2023-05-01T03:45:59.921Z,7.17
2023-05-01T03:48:26.489Z,7.22
2023-05-01T03:50:53.053Z,7.26
2023-05-01T03:53:19.800Z,7.30
2023-05-01T03:55:47.385Z,7.34
2023-05-01T03:58:13.888Z,7.41
2023-05-01T04:00:41.573Z,7.44
2023-05-01T04:03:08.080Z,7.47
2023-05-01T04:05:36.715Z,7.45
2023-05-01T04:08:04.473Z,7.39
2023-05-01T04:10:31.492Z,7.22
2023-05-01T04:13:03.305Z,7.12
2023-05-01T04:15:29.807Z,7.14
2023-05-01T04:17:56.889Z,7.20
2023-05-01T04:20:23.772Z,7.25
2023-05-01T04:22:50.227Z,7.20
2023-05-01T04:25:17.160Z,7.14
2023-05-01T04:27:45.132Z,7.17
2023-05-01T04:30:13.078Z,7.27
2023-05-01T04:32:39.578Z,7.38
2023-05-01T04:35:06.584Z,7.45
2023-05-01T04:37:32.998Z,7.49
2023-05-01T04:39:59.466Z,7.50
2023-05-01T04:42:31.808Z,7.54
2023-05-01T04:45:01.705Z,7.54
2023-05-01T04:47:28.848Z,7.58
2023-05-01T04:49:55.696Z,7.61
2023-05-01T04:52:22.742Z,7.59
2023-05-01T04:54:54.137Z,7.53
2023-05-01T04:57:23.139Z,7.54
2023-05-01T04:59:49.608Z,7.60
2023-05-01T05:02:16.354Z,7.53
2023-05-01T05:04:42.866Z,7.49
2023-05-01T05:07:09.927Z,7.51
2023-05-01T05:10:08.546Z,7.63
2023-05-01T05:12:35.601Z,7.73
2023-05-01T05:15:02.099Z,7.73
2023-05-01T05:17:29.490Z,7.70
2023-05-01T05:19:56.231Z,7.74
2023-05-01T05:22:23.684Z,7.83
2023-05-01T05:25:16.124Z,7.86
2023-05-01T05:27:42.522Z,7.93
2023-05-01T05:30:10.222Z,8.05
2023-05-01T05:32:37.656Z,8.13
2023-05-01T05:35:05.551Z,8.22
2023-05-01T05:37:32.020Z,8.34
2023-05-01T05:39:58.593Z,8.34
2023-05-01T05:42:25.263Z,8.31
2023-05-01T05:44:53.029Z,8.34
2023-05-01T05:47:19.502Z,8.40
2023-05-01T05:49:46.096Z,8.48
2023-05-01T05:52:12.531Z,8.65
2023-05-01T05:54:39.401Z,8.82
2023-05-01T05:57:06.024Z,8.91
2023-05-01T05:59:33.227Z,9.05
2023-05-01T06:01:59.685Z,9.16
2023-05-01T06:04:26.265Z,9.23
2023-05-01T06:06:53.081Z,9.30
2023-05-01T06:09:20.100Z,9.38
2023-05-01T06:11:46.542Z,9.42
2023-05-01T06:14:13.443Z,9.49
2023-05-01T06:16:40.006Z,9.61
2023-05-01T06:19:07.569Z,9.61
2023-05-01T06:21:34.148Z,9.73
2023-05-01T06:24:00.741Z,9.71
2023-05-01T06:26:41.689Z,9.73
2023-05-01T06:29:08.137Z,9.76
2023-05-01T06:31:35.356Z,9.82
2023-05-01T06:34:01.887Z,9.88
2023-05-01T06:36:41.107Z,9.98
2023-05-01T06:39:07.564Z,10.09
2023-05-01T06:41:35.980Z,10.26
2023-05-01T06:44:02.529Z,10.31
2023-05-01T06:46:29.178Z,10.44
2023-05-01T06:48:55.644Z,10.40
2023-05-01T06:51:22.132Z,10.51
2023-05-01T06:53:48.574Z,10.53
2023-05-01T06:56:14.996Z,10.76
2023-05-01T06:58:41.471Z,10.77
2023-05-01T07:01:07.980Z,10.98
2023-05-01T07:03:34.504Z,11.01
2023-05-01T07:06:01.051Z,11.03
2023-05-01T07:08:28.197Z,11.18
2023-05-01T07:10:54.891Z,11.19
2023-05-01T07:13:21.447Z,11.08
2023-05-01T07:15:49.034Z,11.13
2023-05-01T07:18:17.049Z,11.24
2023-05-01T07:20:43.565Z,11.28
2023-05-01T07:23:09.960Z,11.61
2023-05-01T07:25:41.301Z,11.69
2023-05-01T07:28:08.193Z,11.80
2023-05-01T07:30:36.183Z,11.97
2023-05-01T07:33:02.845Z,12.07
2023-05-01T07:35:29.550Z,12.17
2023-05-01T07:37:55.972Z,12.20
2023-05-01T07:40:22.470Z,12.37
2023-05-01T07:42:48.885Z,12.40
2023-05-01T07:45:15.335Z,12.46
2023-05-01T07:47:42.003Z,12.23
2023-05-01T07:50:12.930Z,12.12
2023-05-01T07:52:39.621Z,12.31
2023-05-01T07:55:07.214Z,12.45
2023-05-01T07:57:35.836Z,12.62
2023-05-01T08:00:02.339Z,12.69
2023-05-01T08:02:40.979Z,12.91
2023-05-01T08:05:08.183Z,12.89
2023-05-01T08:07:34.691Z,12.71
2023-05-01T08:10:01.400Z,12.73
2023-05-01T08:12:31.470Z,13.02
2023-05-01T08:14:57.954Z,13.19
2023-05-01T08:17:24.517Z,13.26
2023-05-01T08:19:51.127Z,13.18
2023-05-01T08:22:17.618Z,13.33
2023-05-01T08:24:44.026Z,13.46
2023-05-01T08:27:10.712Z,13.57
2023-05-01T08:29:37.211Z,13.65
2023-05-01T08:32:03.795Z,13.70
2023-05-01T08:34:30.274Z,13.72
2023-05-01T08:36:57.105Z,13.64
2023-05-01T08:39:32.530Z,13.75
2023-05-01T08:42:03.429Z,13.74
2023-05-01T08:44:30.989Z,13.73
2023-05-01T08:47:03.655Z,13.70
2023-05-01T08:49:33.315Z,13.78
2023-05-01T08:52:02.219Z,13.83
2023-05-01T08:54:31.709Z,13.86
2023-05-01T08:57:05.973Z,13.72
2023-05-01T08:59:36.885Z,13.77
2023-05-01T09:02:06.035Z,13.82
2023-05-01T09:04:35.452Z,13.80
2023-05-01T09:07:02.174Z,13.89
2023-05-01T09:09:29.798Z,13.95
2023-05-01T09:12:00.686Z,14.00
2023-05-01T09:14:28.715Z,14.01
2023-05-01T09:16:56.610Z,13.99
2023-05-01T09:19:23.278Z,14.06
2023-05-01T09:21:49.772Z,14.12
2023-05-01T09:24:16.378Z,14.18
2023-05-01T09:26:43.365Z,13.75
2023-05-01T09:29:10.248Z,13.43
2023-05-01T09:31:37.097Z,13.37
2023-05-01T09:34:05.880Z,13.43
2023-05-01T09:36:34.446Z,13.22
2023-05-01T09:39:01.904Z,13.32
2023-05-01T09:41:29.119Z,13.51
2023-05-01T09:43:57.156Z,13.57
2023-05-01T09:46:25.321Z,13.99
2023-05-01T09:48:55.525Z,14.33
2023-05-01T09:51:23.005Z,14.66
2023-05-01T09:53:50.402Z,14.94
2023-05-01T09:56:17.260Z,15.10
2023-05-01T09:58:44.181Z,15.25
2023-05-01T10:01:10.996Z,15.41
2023-05-01T10:03:37.819Z,15.51
2023-05-01T10:06:04.717Z,15.63
2023-05-01T10:08:50.917Z,15.57
2023-05-01T10:11:17.424Z,15.03
2023-05-01T10:13:43.927Z,14.82
2023-05-01T10:16:30.788Z,14.49
2023-05-01T10:18:58.225Z,14.32
2023-05-01T10:21:25.079Z,14.43
2023-05-01T10:23:52.942Z,15.01
2023-05-01T10:26:20.680Z,14.91
2023-05-01T10:28:49.018Z,14.98
2023-05-01T10:31:16.561Z,15.24
2023-05-01T10:33:44.729Z,15.80
2023-05-01T10:36:28.680Z,16.25
2023-05-01T10:38:55.171Z,16.55
2023-05-01T10:41:58.811Z,16.43
2023-05-01T10:44:27.013Z,16.61
2023-05-01T10:46:54.464Z,16.84
2023-05-01T10:49:21.540Z,17.15
2023-05-01T10:52:15.773Z,16.35
2023-05-01T10:54:42.233Z,16.54
2023-05-01T10:57:08.764Z,16.92
2023-05-01T11:00:05.095Z,17.02
2023-05-01T11:02:31.613Z,17.29
2023-05-01T11:04:58.862Z,17.65
2023-05-01T11:07:26.979Z,17.72
2023-05-01T11:09:55.893Z,17.84
2023-05-01T11:12:51.694Z,17.66
2023-05-01T11:15:28.841Z,17.85
2023-05-01T11:17:55.895Z,17.99
2023-05-01T11:20:25.239Z,17.94
2023-05-01T11:22:53.509Z,18.01
2023-05-01T11:25:21.112Z,18.14
2023-05-01T11:27:49.256Z,17.98
2023-05-01T11:30:16.217Z,17.29
2023-05-01T11:32:47.489Z,17.77
2023-05-01T11:35:22.141Z,17.27
2023-05-01T11:37:51.072Z,17.61
2023-05-01T11:40:23.096Z,17.82
2023-05-01T11:42:51.037Z,18.09
2023-05-01T11:45:19.466Z,18.37
2023-05-01T11:47:46.110Z,18.47
2023-05-01T11:50:13.281Z,18.38
2023-05-01T11:52:53.472Z,18.41
2023-05-01T11:55:20.944Z,18.61
2023-05-01T11:57:52.896Z,18.46
2023-05-01T12:00:26.928Z,19.08
2023-05-01T12:02:58.356Z,19.59
2023-05-01T12:05:26.351Z,19.62
2023-05-01T12:08:19.029Z,19.72
2023-05-01T12:10:47.214Z,20.29
2023-05-01T12:13:14.921Z,20.19
2023-05-01T12:15:51.561Z,20.26
2023-05-01T12:18:18.658Z,19.91
2023-05-01T12:20:53.173Z,19.82
2023-05-01T12:23:31.246Z,18.86
2023-05-01T12:25:57.996Z,19.30
2023-05-01T12:28:24.674Z,19.53
2023-05-01T12:30:51.209Z,19.88
2023-05-01T12:33:19.890Z,19.81
2023-05-01T12:35:48.920Z,19.84
2023-05-01T12:38:22.885Z,19.73
2023-05-01T12:40:54.718Z,19.41
2023-05-01T12:43:30.986Z,19.23
2023-05-01T12:45:57.991Z,19.22
2023-05-01T12:48:24.737Z,19.13
2023-05-01T12:50:54.670Z,18.87
2023-05-01T12:53:26.107Z,18.59
2023-05-01T12:55:55.097Z,18.44
2023-05-01T12:58:21.777Z,18.37
2023-05-01T13:00:49.259Z,18.17
2023-05-01T13:03:23.435Z,18.09
2023-05-01T13:05:52.074Z,17.96
2023-05-01T13:08:39.667Z,17.98
2023-05-01T13:11:10.247Z,17.97
2023-05-01T13:13:37.568Z,17.94
2023-05-01T13:16:10.405Z,17.98
2023-05-01T13:18:48.313Z,17.84
2023-05-01T13:21:20.564Z,17.78
2023-05-01T13:24:01.237Z,17.72
2023-05-01T13:26:31.428Z,17.63
2023-05-01T13:29:03.061Z,17.42
2023-05-01T13:31:30.161Z,17.40
2023-05-01T13:33:58.769Z,17.39
2023-05-01T13:36:28.861Z,17.41
2023-05-01T13:38:57.021Z,17.16
2023-05-01T13:41:28.241Z,16.78
2023-05-01T13:43:56.624Z,16.61
2023-05-01T13:46:24.901Z,16.58
2023-05-01T13:48:51.922Z,16.63
2023-05-01T13:51:24.045Z,16.57
2023-05-01T13:53:50.921Z,16.63
2023-05-01T13:56:17.518Z,16.64
2023-05-01T13:58:44.147Z,16.30
2023-05-01T14:01:20.520Z,16.25
2023-05-01T14:03:48.129Z,16.20
2023-05-01T14:06:20.721Z,16.02
2023-05-01T14:08:48.739Z,16.22
2023-05-01T14:11:15.349Z,16.03
2023-05-01T14:13:43.825Z,15.98
2023-05-01T14:16:17.367Z,16.20
2023-05-01T14:18:45.486Z,16.03
2023-05-01T14:21:20.891Z,16.25
2023-05-01T14:23:47.349Z,16.38
2023-05-01T14:26:20.924Z,16.42
2023-05-01T14:28:48.150Z,16.55
2023-05-01T14:31:34.992Z,16.73
2023-05-01T14:34:05.034Z,16.99
2023-05-01T14:36:32.830Z,17.23
2023-05-01T14:39:03.859Z,17.21
2023-05-01T14:41:31.451Z,17.47
2023-05-01T14:43:57.952Z,18.03
2023-05-01T14:46:31.527Z,18.58
2023-05-01T14:48:59.208Z,18.98
2023-05-01T14:51:26.109Z,19.25
2023-05-01T14:53:53.163Z,19.42
2023-05-01T14:56:19.733Z,19.00
2023-05-01T14:58:47.049Z,18.65
2023-05-01T15:01:14.209Z,18.28
2023-05-01T15:03:41.525Z,17.67
2023-05-01T15:06:08.982Z,17.53
2023-05-01T15:08:36.608Z,18.04
2023-05-01T15:11:03.068Z,18.09
2023-05-01T15:13:31.670Z,17.71
2023-05-01T15:15:58.620Z,17.76
2023-05-01T15:18:25.332Z,17.83
2023-05-01T15:20:51.850Z,17.93
2023-05-01T15:23:18.306Z,17.78
2023-05-01T15:25:44.760Z,18.04
2023-05-01T15:28:13.431Z,17.97
2023-05-01T15:30:44.251Z,17.53
2023-05-01T15:33:11.358Z,17.35
2023-05-01T15:35:37.948Z,17.16
2023-05-01T15:38:04.549Z,17.53
2023-05-01T15:40:31.947Z,17.71
2023-05-01T15:42:58.618Z,17.55
2023-05-01T15:45:25.111Z,17.64
2023-05-01T15:47:51.765Z,17.87
2023-05-01T15:50:18.317Z,18.05
2023-05-01T15:52:45.145Z,18.25
2023-05-01T15:55:12.923Z,18.22
2023-05-01T15:57:39.346Z,18.10
2023-05-01T16:00:08.695Z,17.63
2023-05-01T16:02:35.175Z,16.97
2023-05-01T16:05:01.708Z,16.93
2023-05-01T16:07:29.261Z,16.66
2023-05-01T16:09:59.243Z,16.66
2023-05-01T16:12:29.110Z,16.53
2023-05-01T16:14:56.372Z,16.46
2023-05-01T16:17:22.938Z,16.43
2023-05-01T16:19:49.679Z,16.42
2023-05-01T16:22:17.547Z,16.37
2023-05-01T16:24:44.419Z,16.28
2023-05-01T16:27:14.201Z,16.23
2023-05-01T16:29:40.879Z,16.20
2023-05-01T16:32:11.121Z,16.06
2023-05-01T16:34:39.312Z,16.08
2023-05-01T16:37:06.177Z,15.93
2023-05-01T16:39:36.958Z,15.72
2023-05-01T16:42:03.673Z,15.76
2023-05-01T16:44:30.292Z,15.91
2023-05-01T16:47:01.019Z,15.91
2023-05-01T16:49:27.962Z,15.84
2023-05-01T16:51:57.067Z,15.81
2023-05-01T16:54:35.465Z,15.73
2023-05-01T16:57:03.156Z,15.57
2023-05-01T16:59:29.997Z,15.41
2023-05-01T17:01:56.682Z,15.30
2023-05-01T17:04:23.246Z,15.21
2023-05-01T17:06:49.814Z,15.11
2023-05-01T17:09:16.318Z,15.09
2023-05-01T17:11:56.431Z,15.13
2023-05-01T17:14:23.073Z,15.06
2023-05-01T17:16:50.177Z,15.05
2023-05-01T17:19:17.077Z,15.05
2023-05-01T17:21:45.867Z,15.06
2023-05-01T17:24:13.887Z,15.04
2023-05-01T17:26:40.455Z,15.08
2023-05-01T17:29:06.940Z,15.02
2023-05-01T17:31:33.562Z,15.03
2023-05-01T17:34:00.616Z,14.87
2023-05-01T17:36:27.061Z,14.78
2023-05-01T17:38:54.549Z,14.64
2023-05-01T17:41:22.264Z,14.80
2023-05-01T17:43:48.723Z,14.93
2023-05-01T17:46:16.652Z,15.02
2023-05-01T17:48:43.229Z,14.86
2023-05-01T17:51:09.893Z,14.64
2023-05-01T17:53:37.337Z,14.68
2023-05-01T17:56:03.867Z,14.63
2023-05-01T17:58:30.358Z,14.52
2023-05-01T18:00:59.061Z,14.51
2023-05-01T18:03:25.675Z,14.28
2023-05-01T18:05:52.365Z,14.18
2023-05-01T18:08:18.776Z,14.01
2023-05-01T18:10:45.309Z,13.84
2023-05-01T18:13:12.415Z,13.71
2023-05-01T18:15:38.950Z,13.75
2023-05-01T18:18:05.639Z,13.76
2023-05-01T18:20:32.150Z,13.69
2023-05-01T18:22:58.602Z,13.69
2023-05-01T18:25:25.119Z,13.64
2023-05-01T18:27:51.631Z,13.53
2023-05-01T18:30:18.096Z,13.45
2023-05-01T18:32:48.360Z,13.36
2023-05-01T18:35:16.751Z,13.30
2023-05-01T18:37:43.928Z,13.21
2023-05-01T18:40:10.903Z,13.08
2023-05-01T18:42:37.443Z,13.00
2023-05-01T18:45:04.279Z,12.89
2023-05-01T18:47:32.422Z,12.81
2023-05-01T18:49:59.889Z,12.78
2023-05-01T18:52:27.726Z,12.72
2023-05-01T18:54:54.127Z,12.65
2023-05-01T18:57:20.662Z,12.54
2023-05-01T18:59:49.414Z,12.45
2023-05-01T19:02:16.148Z,12.41
2023-05-01T19:04:56.162Z,12.34
2023-05-01T19:07:23.629Z,12.26
2023-05-01T19:09:50.068Z,12.21
2023-05-01T19:12:16.544Z,12.10
2023-05-01T19:14:43.079Z,12.04
2023-05-01T19:17:09.858Z,11.97
2023-05-01T19:19:36.348Z,11.90
2023-05-01T19:22:02.826Z,11.84
2023-05-01T19:24:29.330Z,11.84
2023-05-01T19:26:55.784Z,11.82
2023-05-01T19:29:22.195Z,11.78
2023-05-01T19:31:48.774Z,11.68
2023-05-01T19:34:15.288Z,11.62
2023-05-01T19:36:41.686Z,11.56
2023-05-01T19:39:08.281Z,11.48
2023-05-01T19:41:34.914Z,11.43
2023-05-01T19:44:01.537Z,11.39
2023-05-01T19:46:28.109Z,11.33
2023-05-01T19:48:54.710Z,11.26
2023-05-01T19:51:21.337Z,11.20
2023-05-01T19:53:47.810Z,11.14
2023-05-01T19:56:14.409Z,11.10
2023-05-01T19:58:40.823Z,11.06
2023-05-01T20:01:09.184Z,11.02
2023-05-01T20:03:35.780Z,10.93
2023-05-01T20:06:02.256Z,10.91
2023-05-01T20:08:28.748Z,10.86
2023-05-01T20:10:56.687Z,10.83
2023-05-01T20:13:23.309Z,10.79
2023-05-01T20:15:51.059Z,10.76
2023-05-01T20:18:17.561Z,10.72
2023-05-01T20:20:44.011Z,10.70
2023-05-01T20:23:15.261Z,10.70
2023-05-01T20:25:42.465Z,10.73
2023-05-01T20:28:10.998Z,10.78
2023-05-01T20:30:43.379Z,10.85
2023-05-01T20:33:10.340Z,10.88
2023-05-01T20:35:37.134Z,10.93
2023-05-01T20:38:07.312Z,10.96
2023-05-01T20:40:33.846Z,10.99
2023-05-01T20:43:00.617Z,11.00
2023-05-01T20:45:29.113Z,11.02
2023-05-01T20:47:56.158Z,11.04
2023-05-01T20:50:22.887Z,11.06
2023-05-01T20:52:49.363Z,11.08
2023-05-01T20:55:15.809Z,11.10
2023-05-01T20:57:42.198Z,11.10
2023-05-01T21:00:09.057Z,11.08
2023-05-01T21:02:39.630Z,11.08
2023-05-01T21:05:10.321Z,11.05
2023-05-01T21:07:38.230Z,11.02
2023-05-01T21:10:10.985Z,10.97
2023-05-01T21:12:37.832Z,10.90
2023-05-01T21:15:05.551Z,10.87
2023-05-01T21:17:34.456Z,10.77
2023-05-01T21:20:01.392Z,10.76
2023-05-01T21:22:28.459Z,10.71
2023-05-01T21:24:57.056Z,10.57
2023-05-01T21:27:25.045Z,10.59
2023-05-01T21:29:57.099Z,10.56
2023-05-01T21:32:32.551Z,10.55
2023-05-01T21:35:03.573Z,10.59
2023-05-01T21:37:30.148Z,10.60
2023-05-01T21:40:01.149Z,10.53
2023-05-01T21:42:35.575Z,10.56
2023-05-01T21:45:14.173Z,10.59
2023-05-01T21:47:42.937Z,10.59
2023-05-01T21:50:14.424Z,10.59
2023-05-01T21:52:43.416Z,10.64
2023-05-01T21:55:16.051Z,10.65
2023-05-01T21:57:42.477Z,10.68
2023-05-01T22:00:09.893Z,10.72
2023-05-01T22:02:47.399Z,10.72
2023-05-01T22:05:15.488Z,10.69
2023-05-01T22:07:44.964Z,10.67
2023-05-01T22:10:13.999Z,10.65
2023-05-01T22:12:40.855Z,10.65
2023-05-01T22:15:09.313Z,10.66
2023-05-01T22:17:36.981Z,10.68
2023-05-01T22:20:05.764Z,10.67
2023-05-01T22:22:32.531Z,10.64
2023-05-01T22:24:58.993Z,10.62
2023-05-01T22:27:25.567Z,10.61
2023-05-01T22:29:51.968Z,10.60
2023-05-01T22:32:18.513Z,10.57
2023-05-01T22:34:45.066Z,10.57
2023-05-01T22:37:11.761Z,10.57
2023-05-01T22:39:38.154Z,10.57
2023-05-01T22:42:04.929Z,10.55
2023-05-01T22:44:32.168Z,10.52
2023-05-01T22:47:01.553Z,10.49
2023-05-01T22:49:28.698Z,10.49
2023-05-01T22:51:55.749Z,10.49
2023-05-01T22:54:22.278Z,10.52
2023-05-01T22:56:49.934Z,10.50
2023-05-01T22:59:16.972Z,10.51
2023-05-01T23:01:44.525Z,10.52
2023-05-01T23:04:11.817Z,10.48
2023-05-01T23:06:39.191Z,10.45
2023-05-01T23:09:06.225Z,10.41
2023-05-01T23:11:33.711Z,10.29
2023-05-01T23:14:00.878Z,10.23
2023-05-01T23:16:28.108Z,10.16
2023-05-01T23:18:55.652Z,10.11
2023-05-01T23:21:22.236Z,10.07
2023-05-01T23:23:48.928Z,10.05
2023-05-01T23:26:26.806Z,10.06
2023-05-01T23:28:53.608Z,10.06
2023-05-01T23:31:27.528Z,10.08
2023-05-01T23:33:54.933Z,10.10
2023-05-01T23:36:21.679Z,10.10
2023-05-01T23:38:48.161Z,10.09
2023-05-01T23:41:15.273Z,10.03
2023-05-01T23:43:42.420Z,9.98
2023-05-01T23:46:08.876Z,9.95
2023-05-01T23:48:36.115Z,9.94
2023-05-01T23:51:03.103Z,9.96
2023-05-01T23:53:29.989Z,9.99
2023-05-01T23:55:56.822Z,10.03
2023-05-01T23:58:23.834Z,10.03
